Mississippi Test Facility, Mississippi
Current Conditions -  °F | °C
As of 4:53 AM on Friday 24 Oct 2014 (Local Time) from KGPT Reporting Station
Clear Clear  
Wind Chill: 54°   Ceiling: Unl
Heat Index: 54°   Visibility: 10mi
Dew Point: 47°   Wind: 5mph
Humidity: 77%   Direction: 350°N
Pressure: 30.08"   Gusts: NA
Location:  30.3112°N, 89.3277°W
Report Text: KGPT 240953Z AUTO 35004KT 10SM CLR 12/08 A3008 RMK AO2 SLP184 T01220083
Loading
Personal Weather Stations






























Interactive Weather Map
Tropical Storm Tracking
New forecast layout! Learn more

10-Day Weather Forecast

Advertisements
Track Severe Weather on mobile